createdAt,value
2018-03-30T00:01:18.587Z,0.50
2018-03-30T00:03:45.108Z,0.50
2018-03-30T00:06:11.611Z,0.50
2018-03-30T00:08:38.832Z,0.50
2018-03-30T00:11:05.358Z,0.50
2018-03-30T00:13:31.832Z,0.50
2018-03-30T00:15:59.182Z,0.40
2018-03-30T00:18:26.413Z,0.40
2018-03-30T00:20:52.876Z,0.40
2018-03-30T00:23:20.092Z,0.40
2018-03-30T00:25:46.547Z,0.40
2018-03-30T00:28:13.737Z,0.30
2018-03-30T00:30:40.363Z,0.30
2018-03-30T00:33:06.814Z,0.30
2018-03-30T00:35:33.342Z,0.40
2018-03-30T00:37:59.798Z,0.40
2018-03-30T00:40:26.275Z,0.20
2018-03-30T00:42:55.283Z,0.30
2018-03-30T00:45:21.772Z,0.10
2018-03-30T00:47:48.325Z,0.20
2018-03-30T00:50:15.572Z,0.20
2018-03-30T00:52:42.037Z,0.10
2018-03-30T00:55:08.553Z,0.20
2018-03-30T00:57:35.794Z,0.10
2018-03-30T01:00:02.232Z,0.10
2018-03-30T01:02:29.437Z,0.20
2018-03-30T01:04:56.095Z,0.20
2018-03-30T01:07:23.328Z,0.10
2018-03-30T01:09:49.789Z,0.10
2018-03-30T01:12:16.327Z,0.00
2018-03-30T01:14:42.856Z,-0.10
2018-03-30T01:17:11.132Z,-0.10
2018-03-30T01:19:37.632Z,-0.10
2018-03-30T01:22:04.107Z,-0.10
2018-03-30T01:24:30.652Z,-0.10
2018-03-30T01:26:57.231Z,-0.20
2018-03-30T01:29:23.732Z,-0.20
2018-03-30T01:31:50.969Z,-0.10
2018-03-30T01:34:17.430Z,-0.20
2018-03-30T01:36:44.770Z,-0.10
2018-03-30T01:39:12.059Z,-0.10
2018-03-30T01:41:38.562Z,-0.10
2018-03-30T01:44:05.779Z,0.00
2018-03-30T01:46:32.378Z,0.00
2018-03-30T01:48:58.819Z,0.00
2018-03-30T01:51:25.384Z,0.10
2018-03-30T01:53:51.829Z,0.00
2018-03-30T01:56:18.298Z,0.00
2018-03-30T01:58:45.638Z,0.00
2018-03-30T02:01:12.103Z,0.00
2018-03-30T02:03:38.679Z,0.10
2018-03-30T02:06:05.131Z,0.10
2018-03-30T02:08:31.619Z,0.20
2018-03-30T02:10:58.068Z,0.10
2018-03-30T02:13:24.713Z,0.30
2018-03-30T02:15:51.315Z,0.40
2018-03-30T02:18:17.864Z,0.50
2018-03-30T02:20:44.368Z,0.50
2018-03-30T02:23:10.819Z,0.50
2018-03-30T02:25:37.271Z,0.60
2018-03-30T02:28:03.685Z,0.60
2018-03-30T02:30:30.141Z,1.10
2018-03-30T02:32:56.645Z,1.60
2018-03-30T02:35:23.299Z,1.90
2018-03-30T02:37:49.744Z,1.90
2018-03-30T02:40:16.230Z,1.90
2018-03-30T02:42:43.503Z,1.90
2018-03-30T02:45:09.984Z,1.90
2018-03-30T02:47:36.553Z,1.90
2018-03-30T02:50:03.875Z,1.90
2018-03-30T02:52:30.381Z,1.90
2018-03-30T02:54:56.839Z,1.80
2018-03-30T02:57:23.300Z,1.80
2018-03-30T02:59:50.498Z,1.90
2018-03-30T03:02:16.959Z,1.80
2018-03-30T03:04:43.420Z,1.80
2018-03-30T03:07:10.733Z,1.80
2018-03-30T03:09:37.227Z,1.70
2018-03-30T03:12:03.665Z,1.80
2018-03-30T03:14:31.355Z,1.80
2018-03-30T03:16:57.816Z,1.90
2018-03-30T03:19:24.316Z,2.00
2018-03-30T03:21:50.791Z,2.10
2018-03-30T03:24:17.274Z,2.10
2018-03-30T03:26:43.908Z,2.20
2018-03-30T03:29:10.339Z,2.20
2018-03-30T03:31:36.951Z,2.20
2018-03-30T03:34:04.215Z,2.30
2018-03-30T03:36:30.703Z,2.30
2018-03-30T03:38:57.901Z,2.30
2018-03-30T03:41:24.520Z,2.30
2018-03-30T03:43:51.749Z,2.30
2018-03-30T03:46:18.216Z,2.30
2018-03-30T03:48:44.736Z,2.30
2018-03-30T03:51:12.035Z,2.30
2018-03-30T03:53:38.532Z,2.30
2018-03-30T03:56:05.736Z,2.30
2018-03-30T03:58:32.327Z,2.30
2018-03-30T04:00:58.793Z,2.30
2018-03-30T04:03:25.313Z,2.30
2018-03-30T04:05:51.735Z,2.20
2018-03-30T04:08:18.898Z,2.20
2018-03-30T04:10:45.370Z,2.20
2018-03-30T04:13:11.830Z,2.20
2018-03-30T04:15:39.188Z,2.10
2018-03-30T04:18:06.414Z,2.10
2018-03-30T04:20:32.938Z,2.00
2018-03-30T04:22:59.400Z,2.00
2018-03-30T04:25:25.899Z,2.00
2018-03-30T04:27:52.343Z,2.00
2018-03-30T04:30:18.771Z,2.00
2018-03-30T04:32:45.236Z,1.90
2018-03-30T04:35:12.432Z,1.90
2018-03-30T04:37:38.932Z,1.90
2018-03-30T04:40:06.140Z,1.90
2018-03-30T04:42:32.556Z,1.90
2018-03-30T04:44:59.013Z,1.90
2018-03-30T04:47:25.453Z,2.00
2018-03-30T04:49:51.955Z,1.90
2018-03-30T04:52:18.401Z,2.00
2018-03-30T04:54:44.876Z,2.00
2018-03-30T04:57:12.048Z,1.90
2018-03-30T04:59:38.507Z,1.80
2018-03-30T05:02:04.992Z,1.80
2018-03-30T05:04:32.187Z,1.80
2018-03-30T05:06:58.712Z,1.70
2018-03-30T05:09:25.203Z,1.60
2018-03-30T05:11:51.768Z,1.70
2018-03-30T05:14:18.285Z,1.70
2018-03-30T05:16:45.511Z,1.70
2018-03-30T05:19:11.941Z,1.70
2018-03-30T05:21:38.437Z,1.80
2018-03-30T05:24:04.906Z,1.70
2018-03-30T05:26:31.370Z,1.70
2018-03-30T05:28:57.842Z,1.80
2018-03-30T05:31:24.249Z,2.10
2018-03-30T05:33:51.619Z,2.70
2018-03-30T05:36:18.103Z,2.70
2018-03-30T05:38:44.604Z,3.10
2018-03-30T05:41:11.095Z,3.40
2018-03-30T05:43:38.349Z,3.90
2018-03-30T05:46:05.573Z,4.30
2018-03-30T05:48:32.129Z,4.20
2018-03-30T05:50:59.371Z,5.40
2018-03-30T05:53:26.665Z,5.90
2018-03-30T05:55:53.228Z,5.90
2018-03-30T05:58:19.807Z,6.30
2018-03-30T06:00:47.029Z,4.90
2018-03-30T06:03:13.496Z,4.80
2018-03-30T06:05:40.767Z,4.80
2018-03-30T06:08:07.236Z,4.80
2018-03-30T06:10:33.722Z,4.60
2018-03-30T06:13:00.192Z,5.50
2018-03-30T06:15:26.822Z,6.00
2018-03-30T06:17:53.286Z,5.70
2018-03-30T06:20:19.859Z,5.80
2018-03-30T06:22:47.146Z,7.50
2018-03-30T06:25:13.588Z,7.50
2018-03-30T06:27:40.110Z,8.70
2018-03-30T06:30:06.573Z,9.30
2018-03-30T06:32:33.087Z,9.90
2018-03-30T06:34:59.583Z,11.00
2018-03-30T06:37:26.801Z,11.50
2018-03-30T06:39:53.306Z,11.50
2018-03-30T06:42:19.779Z,12.10
2018-03-30T06:44:46.330Z,12.30
2018-03-30T06:47:13.584Z,12.20
2018-03-30T06:49:40.818Z,12.90
2018-03-30T06:52:07.255Z,12.80
2018-03-30T06:54:33.856Z,13.00
2018-03-30T06:57:00.309Z,12.60
2018-03-30T06:59:26.887Z,12.80
2018-03-30T07:01:54.168Z,10.60
2018-03-30T07:04:20.594Z,10.60
2018-03-30T07:06:47.193Z,8.90
2018-03-30T07:09:14.475Z,9.60
2018-03-30T07:11:40.932Z,9.60
2018-03-30T07:14:07.551Z,9.70
2018-03-30T07:16:34.041Z,9.50
2018-03-30T07:19:00.542Z,9.60
2018-03-30T07:21:27.020Z,8.60
2018-03-30T07:23:53.530Z,8.70
2018-03-30T07:26:20.059Z,9.40
2018-03-30T07:28:46.561Z,9.80
2018-03-30T07:31:13.064Z,10.90
2018-03-30T07:33:39.647Z,12.70
2018-03-30T07:36:06.163Z,14.30
2018-03-30T07:38:32.624Z,16.00
2018-03-30T07:40:59.258Z,16.40
2018-03-30T07:43:25.739Z,16.40
2018-03-30T07:45:52.167Z,15.60
2018-03-30T07:48:18.595Z,16.20
2018-03-30T07:50:45.121Z,17.10
2018-03-30T07:53:11.609Z,16.80
2018-03-30T07:55:38.143Z,17.00
2018-03-30T07:58:04.662Z,16.80
2018-03-30T08:00:31.496Z,15.80
2018-03-30T08:02:58.758Z,12.50
2018-03-30T08:05:25.271Z,12.50
2018-03-30T08:07:52.568Z,12.20
2018-03-30T08:10:19.128Z,12.20
2018-03-30T08:12:46.402Z,11.30
2018-03-30T08:15:12.920Z,11.30
2018-03-30T08:17:39.456Z,10.70
2018-03-30T08:20:05.987Z,10.40
2018-03-30T08:22:32.515Z,9.90
2018-03-30T08:24:59.103Z,9.60
2018-03-30T08:27:26.288Z,9.70
2018-03-30T08:29:52.777Z,9.70
2018-03-30T08:32:19.384Z,9.70
2018-03-30T08:34:45.817Z,9.70
2018-03-30T08:37:12.457Z,10.00
2018-03-30T08:39:38.931Z,10.30
2018-03-30T08:42:06.140Z,10.70
2018-03-30T08:44:32.700Z,10.70
2018-03-30T08:47:00.029Z,10.20
2018-03-30T08:49:26.557Z,10.20
2018-03-30T08:51:53.104Z,10.30
2018-03-30T08:54:19.639Z,10.40
2018-03-30T08:56:46.154Z,11.40
2018-03-30T08:59:12.692Z,10.60
2018-03-30T09:01:39.937Z,10.80
2018-03-30T09:04:06.462Z,10.70
2018-03-30T09:06:33.032Z,10.80
2018-03-30T09:08:59.763Z,10.70
2018-03-30T09:11:26.283Z,10.90
2018-03-30T09:13:52.780Z,11.50
2018-03-30T09:16:19.314Z,11.70
2018-03-30T09:18:45.886Z,11.90
2018-03-30T09:21:12.469Z,11.30
2018-03-30T09:23:39.762Z,11.60
2018-03-30T09:26:06.258Z,11.60
2018-03-30T09:28:33.540Z,11.80
2018-03-30T09:31:00.143Z,11.80
2018-03-30T09:33:27.557Z,12.00
2018-03-30T09:35:54.047Z,11.90
2018-03-30T09:38:21.291Z,12.90
2018-03-30T09:40:47.791Z,12.90
2018-03-30T09:43:14.311Z,13.00
2018-03-30T09:45:40.847Z,12.80
2018-03-30T09:48:07.407Z,12.40
2018-03-30T09:50:33.996Z,12.70
2018-03-30T09:53:00.479Z,12.30
2018-03-30T09:55:27.134Z,12.50
2018-03-30T09:57:54.464Z,12.60
2018-03-30T10:00:21.366Z,12.60
2018-03-30T10:02:47.818Z,12.90
2018-03-30T10:05:14.763Z,12.90
2018-03-30T10:07:42.133Z,13.00
2018-03-30T10:10:08.684Z,13.00
2018-03-30T10:12:35.212Z,13.60
2018-03-30T10:15:01.813Z,14.20
2018-03-30T10:17:28.255Z,14.20
2018-03-30T10:19:54.711Z,14.50
2018-03-30T10:22:21.279Z,13.70
2018-03-30T10:24:48.921Z,13.70
2018-03-30T10:27:23.802Z,13.70
2018-03-30T10:29:58.052Z,13.80
2018-03-30T10:32:24.775Z,14.10
2018-03-30T10:34:51.277Z,14.00
2018-03-30T10:37:18.486Z,14.40
2018-03-30T10:39:44.946Z,14.40
2018-03-30T10:42:12.168Z,14.20
2018-03-30T10:44:40.932Z,14.10
2018-03-30T10:47:07.581Z,14.50
2018-03-30T10:49:34.081Z,14.10
2018-03-30T10:52:01.665Z,14.40
2018-03-30T10:54:28.155Z,14.70
2018-03-30T10:56:55.593Z,14.40
2018-03-30T10:59:22.081Z,14.30
2018-03-30T11:01:48.663Z,13.90
2018-03-30T11:04:15.231Z,13.80
2018-03-30T11:06:41.880Z,13.90
2018-03-30T11:09:08.532Z,13.70
2018-03-30T11:11:35.167Z,14.00
2018-03-30T11:14:04.311Z,14.80
2018-03-30T11:16:30.850Z,14.80
2018-03-30T11:18:57.463Z,14.80
2018-03-30T11:21:24.127Z,14.90
2018-03-30T11:23:50.811Z,15.00
2018-03-30T11:26:17.312Z,15.30
2018-03-30T11:28:44.889Z,15.40
2018-03-30T11:31:11.420Z,15.40
2018-03-30T11:33:38.604Z,14.60
2018-03-30T11:36:05.882Z,14.60
2018-03-30T11:38:32.378Z,14.10
2018-03-30T11:40:58.871Z,14.40
2018-03-30T11:43:26.375Z,15.20
2018-03-30T11:48:25.994Z,13.50
2018-03-30T11:50:52.647Z,13.50
2018-03-30T11:53:19.126Z,13.30
2018-03-30T11:55:46.637Z,13.40
2018-03-30T11:58:13.298Z,13.40
2018-03-30T12:00:39.923Z,13.60
2018-03-30T12:03:06.739Z,13.70
2018-03-30T12:05:33.258Z,14.00
2018-03-30T12:10:34.986Z,14.00
2018-03-30T12:13:01.516Z,13.90
2018-03-30T12:15:28.040Z,14.00
2018-03-30T12:17:54.563Z,13.80
2018-03-30T12:20:21.076Z,13.60
2018-03-30T12:22:47.580Z,14.10
2018-03-30T12:25:14.556Z,13.80
2018-03-30T12:27:41.034Z,13.70
2018-03-30T12:30:07.473Z,13.40
2018-03-30T12:32:33.953Z,13.40
2018-03-30T12:35:00.432Z,13.20
2018-03-30T12:37:27.001Z,13.20
2018-03-30T12:39:54.231Z,13.00
2018-03-30T12:42:20.794Z,13.00
2018-03-30T12:44:48.169Z,13.20
2018-03-30T12:47:14.701Z,13.20
2018-03-30T12:49:41.216Z,13.20
2018-03-30T12:52:08.527Z,13.10
2018-03-30T12:54:35.038Z,13.10
2018-03-30T12:57:01.511Z,13.20
2018-03-30T12:59:28.168Z,13.30
2018-03-30T13:01:55.386Z,13.10
2018-03-30T13:04:21.898Z,13.10
2018-03-30T13:06:48.362Z,13.10
2018-03-30T13:09:14.948Z,13.30
2018-03-30T13:11:41.993Z,13.50
2018-03-30T13:14:08.470Z,13.50
2018-03-30T13:16:35.115Z,13.50
2018-03-30T13:19:01.980Z,13.70
2018-03-30T13:21:28.539Z,13.60
2018-03-30T13:23:55.061Z,14.20
2018-03-30T13:26:22.327Z,15.30
2018-03-30T13:28:49.692Z,15.60
2018-03-30T13:31:16.199Z,15.60
2018-03-30T13:33:42.711Z,15.70
2018-03-30T13:36:10.404Z,15.50
2018-03-30T13:38:37.718Z,16.70
2018-03-30T13:41:05.238Z,15.60
2018-03-30T13:43:31.787Z,15.50
2018-03-30T13:45:58.239Z,15.50
2018-03-30T13:48:24.982Z,16.30
2018-03-30T13:50:53.258Z,16.90
2018-03-30T13:53:21.540Z,16.60
2018-03-30T13:55:49.227Z,16.10
2018-03-30T13:58:17.521Z,15.90
2018-03-30T14:00:52.648Z,16.60
2018-03-30T14:03:48.628Z,16.90
2018-03-30T14:06:25.800Z,16.90
2018-03-30T14:08:57.146Z,17.10
2018-03-30T14:11:24.536Z,16.30
2018-03-30T14:13:51.274Z,16.10
2018-03-30T14:16:20.828Z,16.00
2018-03-30T14:19:06.222Z,15.80
2018-03-30T14:21:33.577Z,15.80
2018-03-30T14:24:02.697Z,16.10
2018-03-30T14:26:33.338Z,16.40
2018-03-30T14:29:06.730Z,16.30
2018-03-30T14:31:34.063Z,16.50
2018-03-30T14:34:00.502Z,16.70
2018-03-30T14:39:52.208Z,17.30
2018-03-30T14:42:19.624Z,17.00
2018-03-30T14:44:47.024Z,17.60
2018-03-30T14:47:17.216Z,16.70
2018-03-30T14:49:48.393Z,16.70
2018-03-30T14:52:25.982Z,16.80
2018-03-30T14:55:00.064Z,16.10
2018-03-30T14:57:27.487Z,16.10
2018-03-30T15:00:05.072Z,15.60
2018-03-30T15:02:35.328Z,14.20
2018-03-30T15:05:28.600Z,14.20
2018-03-30T15:08:09.111Z,13.80
2018-03-30T15:10:41.419Z,13.50
2018-03-30T15:13:25.647Z,13.30
2018-03-30T15:16:09.074Z,13.20
2018-03-30T15:18:38.289Z,13.20
2018-03-30T15:21:04.768Z,13.30
2018-03-30T15:23:33.921Z,13.40
2018-03-30T15:26:18.011Z,13.40
2018-03-30T15:28:56.935Z,13.50
2018-03-30T15:31:27.681Z,13.80
2018-03-30T15:34:06.232Z,13.80
2018-03-30T15:36:49.617Z,13.90
2018-03-30T15:39:16.141Z,13.90
2018-03-30T15:41:45.641Z,13.70
2018-03-30T15:44:12.241Z,14.10
2018-03-30T15:49:45.814Z,13.40
2018-03-30T15:52:13.216Z,13.20
2018-03-30T15:54:39.733Z,13.00
2018-03-30T15:57:06.250Z,13.00
2018-03-30T15:59:32.709Z,13.00
2018-03-30T16:01:59.279Z,12.90
2018-03-30T16:04:26.461Z,12.80
2018-03-30T16:06:52.924Z,12.80
2018-03-30T16:09:21.986Z,12.80
2018-03-30T16:11:48.557Z,12.80
2018-03-30T16:14:14.991Z,12.80
2018-03-30T16:16:42.185Z,12.80
2018-03-30T16:19:08.450Z,12.80
2018-03-30T16:21:35.473Z,12.80
2018-03-30T16:24:01.837Z,12.70
2018-03-30T16:26:28.101Z,12.70
2018-03-30T16:28:54.315Z,12.70
2018-03-30T16:31:20.563Z,12.70
2018-03-30T16:33:48.450Z,12.70
2018-03-30T16:36:14.661Z,12.70
2018-03-30T16:38:41.555Z,12.50
2018-03-30T16:41:07.935Z,12.50
2018-03-30T16:43:38.445Z,12.50
2018-03-30T16:46:04.581Z,12.50
2018-03-30T16:48:31.542Z,12.50
2018-03-30T16:50:57.804Z,12.50
2018-03-30T16:53:24.020Z,12.50
2018-03-30T16:55:50.237Z,12.40
2018-03-30T16:58:16.415Z,12.40
2018-03-30T17:00:42.589Z,12.30
2018-03-30T17:03:08.762Z,12.30
2018-03-30T17:05:34.960Z,12.30
2018-03-30T17:08:01.108Z,12.20
2018-03-30T17:10:27.333Z,12.00
2018-03-30T17:12:53.493Z,12.00
2018-03-30T17:15:21.335Z,12.00
2018-03-30T17:17:47.475Z,12.00
2018-03-30T17:20:13.579Z,11.90
2018-03-30T17:22:39.845Z,11.90
2018-03-30T17:25:06.713Z,12.00
2018-03-30T17:27:32.941Z,12.00
2018-03-30T17:29:59.935Z,12.00
2018-03-30T17:32:26.273Z,11.90
2018-03-30T17:34:53.134Z,11.80
2018-03-30T17:37:20.652Z,11.80
2018-03-30T17:39:47.024Z,11.80
2018-03-30T17:42:13.283Z,11.80
2018-03-30T17:44:39.488Z,11.70
2018-03-30T17:47:05.664Z,11.70
2018-03-30T17:49:31.858Z,11.60
2018-03-30T17:51:59.484Z,11.70
2018-03-30T17:54:26.387Z,11.70
2018-03-30T17:56:52.637Z,11.70
2018-03-30T17:59:18.791Z,11.60
2018-03-30T18:01:46.295Z,11.70
2018-03-30T18:04:12.577Z,11.70
2018-03-30T18:06:39.497Z,11.60
2018-03-30T18:09:05.614Z,11.70
2018-03-30T18:11:31.929Z,11.70
2018-03-30T18:13:58.196Z,11.60
2018-03-30T18:16:24.622Z,11.60
2018-03-30T18:18:52.103Z,11.60
2018-03-30T18:21:18.482Z,11.70
2018-03-30T18:23:44.891Z,11.70
2018-03-30T18:26:11.070Z,11.60
2018-03-30T18:28:38.093Z,11.60
2018-03-30T18:31:04.294Z,11.60
2018-03-30T18:33:30.519Z,11.60
2018-03-30T18:35:56.809Z,11.60
2018-03-30T18:38:23.762Z,11.60
2018-03-30T18:40:49.906Z,11.60
2018-03-30T18:43:16.121Z,11.60
2018-03-30T18:45:42.256Z,11.70
2018-03-30T18:48:08.534Z,11.60
2018-03-30T18:50:35.348Z,11.60
2018-03-30T18:53:01.507Z,11.50
2018-03-30T18:55:27.743Z,11.50
2018-03-30T18:57:54.725Z,11.50
2018-03-30T19:00:20.922Z,11.50
2018-03-30T19:02:48.148Z,11.40
2018-03-30T19:05:14.334Z,11.40
2018-03-30T19:07:43.165Z,11.40
2018-03-30T19:10:09.350Z,11.30
2018-03-30T19:12:35.565Z,11.30
2018-03-30T19:15:01.765Z,11.30
2018-03-30T19:17:28.779Z,11.20
2018-03-30T19:19:54.944Z,11.20
2018-03-30T19:22:22.629Z,11.10
2018-03-30T19:24:49.133Z,11.10
2018-03-30T19:27:16.079Z,10.90
2018-03-30T19:29:42.977Z,10.80
2018-03-30T19:32:10.743Z,10.50
2018-03-30T19:34:36.937Z,10.50
2018-03-30T19:37:03.104Z,10.30
2018-03-30T19:39:29.320Z,10.10
2018-03-30T19:41:55.521Z,9.90
2018-03-30T19:44:21.660Z,9.70
2018-03-30T19:46:47.775Z,9.60
2018-03-30T19:49:13.959Z,9.40
2018-03-30T19:51:40.172Z,9.20
2018-03-30T19:54:06.470Z,9.00
2018-03-30T19:56:32.672Z,8.90
2018-03-30T19:58:58.886Z,8.70
2018-03-30T20:01:25.101Z,8.60
2018-03-30T20:03:51.995Z,8.30
2018-03-30T20:06:19.419Z,8.30
2018-03-30T20:08:45.594Z,8.30
2018-03-30T20:11:11.791Z,8.20
2018-03-30T20:13:37.954Z,8.20
2018-03-30T20:16:04.658Z,8.10
2018-03-30T20:18:31.794Z,8.00
2018-03-30T20:20:57.943Z,8.00
2018-03-30T20:23:24.230Z,7.90
2018-03-30T20:25:51.274Z,7.80
2018-03-30T20:28:18.260Z,7.70
2018-03-30T20:30:44.459Z,7.70
2018-03-30T20:33:10.687Z,7.70
2018-03-30T20:35:36.818Z,7.60
2018-03-30T20:38:02.974Z,7.60
2018-03-30T20:40:29.155Z,7.60
2018-03-30T20:42:55.401Z,7.50
2018-03-30T20:45:21.621Z,7.50
2018-03-30T20:47:47.734Z,7.50
2018-03-30T20:50:14.022Z,7.40
2018-03-30T20:52:40.259Z,7.40
2018-03-30T20:55:07.349Z,7.30
2018-03-30T20:57:33.530Z,7.30
2018-03-30T20:59:59.741Z,7.30
2018-03-30T21:02:26.008Z,7.30
2018-03-30T21:04:52.934Z,7.20
2018-03-30T21:07:19.085Z,7.20
2018-03-30T21:09:46.373Z,7.20
2018-03-30T21:12:12.523Z,7.20
2018-03-30T21:14:39.355Z,7.20
2018-03-30T21:17:06.230Z,7.20
2018-03-30T21:19:33.170Z,7.20
2018-03-30T21:21:59.286Z,7.20
2018-03-30T21:24:25.440Z,7.20
2018-03-30T21:26:52.337Z,7.20
2018-03-30T21:29:18.659Z,7.20
2018-03-30T21:31:45.589Z,7.10
2018-03-30T21:34:11.760Z,7.10
2018-03-30T21:36:37.981Z,7.10
2018-03-30T21:39:04.208Z,7.00
2018-03-30T21:41:30.409Z,7.10
2018-03-30T21:43:56.569Z,7.10
2018-03-30T21:46:22.735Z,7.10
2018-03-30T21:48:48.972Z,7.10
2018-03-30T21:51:15.110Z,7.10
2018-03-30T21:53:41.294Z,7.20
2018-03-30T21:56:08.141Z,7.10
2018-03-30T21:58:34.417Z,7.10
2018-03-30T22:01:00.603Z,7.10
2018-03-30T22:03:26.750Z,7.10
2018-03-30T22:05:53.062Z,7.10
2018-03-30T22:08:19.199Z,7.10
2018-03-30T22:10:47.048Z,7.10
2018-03-30T22:13:13.272Z,7.10
2018-03-30T22:15:39.454Z,7.10
2018-03-30T22:18:05.602Z,7.10
2018-03-30T22:20:31.900Z,7.10
2018-03-30T22:22:58.066Z,7.10
2018-03-30T22:25:24.953Z,7.00
2018-03-30T22:27:51.114Z,7.00
2018-03-30T22:30:17.351Z,7.00
2018-03-30T22:32:43.530Z,7.00
2018-03-30T22:35:09.657Z,7.00
2018-03-30T22:37:35.979Z,7.00
2018-03-30T22:40:02.132Z,7.00
2018-03-30T22:42:28.249Z,7.00
2018-03-30T22:44:54.409Z,7.00
2018-03-30T22:47:20.569Z,7.00
2018-03-30T22:49:46.814Z,7.00
2018-03-30T22:52:12.955Z,7.00
2018-03-30T22:54:39.105Z,7.00
2018-03-30T22:57:05.300Z,7.00
2018-03-30T22:59:31.421Z,6.90
2018-03-30T23:01:57.565Z,6.90
2018-03-30T23:04:23.738Z,6.90
2018-03-30T23:06:50.597Z,6.90
2018-03-30T23:09:16.779Z,6.90
2018-03-30T23:11:42.957Z,6.90
2018-03-30T23:14:09.155Z,6.90
2018-03-30T23:16:36.061Z,6.90
2018-03-30T23:19:02.285Z,6.90
2018-03-30T23:21:29.232Z,6.90
2018-03-30T23:23:55.490Z,6.90
2018-03-30T23:26:22.426Z,6.80
2018-03-30T23:28:48.585Z,6.80
2018-03-30T23:31:14.747Z,6.80
2018-03-30T23:33:40.883Z,6.70
2018-03-30T23:36:07.093Z,6.70
2018-03-30T23:38:33.243Z,6.70
2018-03-30T23:40:59.376Z,6.70
2018-03-30T23:43:25.599Z,6.70
2018-03-30T23:45:52.726Z,6.60
2018-03-30T23:48:19.907Z,6.50
2018-03-30T23:50:46.086Z,6.60
2018-03-30T23:53:12.297Z,6.50
2018-03-30T23:55:38.520Z,6.50
2018-03-30T23:58:05.618Z,6.50
